Time;durP1;ratioP1;P1;durP2;ratioP2;P2;SDS_P1;SDS_P2;PMS_P1;PMS_P2;Temp;Humidity;BMP_temperature;BMP_pressure;BME280_temperature;BME280_humidity;BME280_pressure;Samples;Min_cycle;Max_cycle;Signal;HPM_P1;HPM_P2
2024/01/03 00:01:38;;;;;;;0.60;0.60;;;9.80;1.00;;;;;;5115761;28;20166;-85
2024/01/03 00:04:05;;;;;;;0.60;0.60;;;9.70;1.00;;;;;;5123431;28;20173;-81
2024/01/03 00:06:33;;;;;;;0.70;0.70;;;9.70;1.00;;;;;;5125049;28;20200;-83
2024/01/03 00:08:59;;;;;;;0.70;0.70;;;9.60;1.00;;;;;;5121887;28;20257;-85
2024/01/03 00:11:32;;;;;;;0.70;0.70;;;9.60;1.00;;;;;;5116665;28;20760;-85
2024/01/03 00:14:06;;;;;;;0.60;0.60;;;9.60;1.00;;;;;;5116166;28;20224;-85
2024/01/03 00:16:41;;;;;;;0.70;0.70;;;9.60;1.00;;;;;;5123799;27;20196;-83
2024/01/03 00:19:14;;;;;;;0.70;0.70;;;9.60;1.00;;;;;;5137385;27;20186;-84
2024/01/03 00:21:40;;;;;;;0.70;0.70;;;9.60;1.00;;;;;;5137425;27;20164;-84
2024/01/03 00:24:09;;;;;;;0.80;0.80;;;9.60;1.00;;;;;;5136860;27;20203;-83
2024/01/03 00:26:39;;;;;;;0.60;0.60;;;9.70;1.00;;;;;;5145060;27;20192;-84
2024/01/03 00:29:08;;;;;;;0.70;0.70;;;9.60;1.00;;;;;;5143251;27;20169;-85
2024/01/03 00:31:43;;;;;;;0.60;0.60;;;9.70;1.00;;;;;;5148690;27;20767;-80
2024/01/03 00:34:20;;;;;;;0.70;0.70;;;9.70;1.00;;;;;;5152384;27;20203;-80
2024/01/03 00:36:54;;;;;;;0.60;0.60;;;9.70;1.00;;;;;;5153615;27;20713;-81
2024/01/03 00:39:25;;;;;;;0.60;0.60;;;9.70;1.00;;;;;;5135214;27;20177;-83
2024/01/03 00:41:51;;;;;;;0.57;0.57;;;9.70;99.90;;;;;;5133710;27;20211;-84
2024/01/03 00:44:16;;;;;;;0.73;0.73;;;10.00;99.90;;;;;;5135539;27;20173;-81
2024/01/03 00:46:42;;;;;;;0.60;0.60;;;9.70;99.90;;;;;;5134760;27;20192;-81
2024/01/03 00:49:08;;;;;;;0.70;0.70;;;9.70;1.00;;;;;;5134768;27;20180;-84
2024/01/03 00:51:34;;;;;;;0.60;0.60;;;9.70;36.70;;;;;;5135626;27;20164;-84
2024/01/03 00:54:00;;;;;;;0.77;0.77;;;9.70;1.00;;;;;;5134413;27;20521;-85
2024/01/03 00:56:27;;;;;;;0.70;0.70;;;9.70;1.00;;;;;;5134011;27;20191;-84
2024/01/03 00:58:53;;;;;;;0.60;0.60;;;9.70;1.00;;;;;;5134732;27;20197;-83
2024/01/03 01:01:19;;;;;;;0.67;0.67;;;9.80;1.00;;;;;;5149577;27;20184;-80
2024/01/03 01:03:45;;;;;;;0.60;0.60;;;9.80;99.90;;;;;;5155603;27;20228;-78
2024/01/03 01:06:11;;;;;;;0.60;0.60;;;9.70;1.00;;;;;;5137352;28;20189;-77
2024/01/03 01:08:36;;;;;;;0.67;0.67;;;9.70;1.00;;;;;;5138257;28;20208;-78
2024/01/03 01:11:02;;;;;;;0.70;0.70;;;9.60;1.00;;;;;;5138529;28;20236;-78
2024/01/03 01:13:27;;;;;;;0.70;0.70;;;9.60;1.00;;;;;;5133340;28;20281;-81
2024/01/03 01:15:53;;;;;;;0.63;0.63;;;9.50;1.00;;;;;;5120852;28;20241;-84
2024/01/03 01:18:18;;;;;;;0.60;0.60;;;9.50;1.00;;;;;;5114257;28;20620;-83
2024/01/03 01:20:44;;;;;;;0.60;0.60;;;9.50;1.00;;;;;;5114249;28;20200;-84
2024/01/03 01:23:09;;;;;;;0.60;0.60;;;9.50;1.00;;;;;;5114523;28;20169;-84
2024/01/03 01:25:35;;;;;;;0.70;0.70;;;9.40;1.00;;;;;;5112685;28;20195;-83
2024/01/03 01:28:00;;;;;;;0.60;0.60;;;9.30;1.00;;;;;;5114721;28;20254;-83
2024/01/03 01:30:26;;;;;;;0.70;0.70;;;9.20;1.00;;;;;;5114073;28;20168;-83
2024/01/03 01:32:52;;;;;;;0.73;0.73;;;9.20;1.00;;;;;;5114228;28;20195;-83
2024/01/03 01:35:18;;;;;;;0.67;0.67;;;9.20;1.00;;;;;;5113605;28;20658;-82
2024/01/03 01:37:43;;;;;;;0.60;0.60;;;9.10;1.00;;;;;;5120043;28;20200;-83
2024/01/03 01:40:10;;;;;;;0.80;0.80;;;9.10;1.00;;;;;;5134556;27;20174;-81
2024/01/03 01:42:36;;;;;;;0.70;0.70;;;9.10;1.00;;;;;;5134560;28;20664;-84
2024/01/03 01:45:02;;;;;;;0.60;0.60;;;9.10;1.00;;;;;;5134926;27;20176;-83
2024/01/03 01:47:28;;;;;;;0.70;0.70;;;9.10;1.00;;;;;;5134091;28;20199;-82
2024/01/03 01:49:54;;;;;;;0.70;0.70;;;9.10;1.00;;;;;;5134871;27;20172;-83
2024/01/03 01:52:21;;;;;;;0.70;0.70;;;9.20;1.00;;;;;;5134526;28;20164;-83
2024/01/03 01:54:48;;;;;;;0.70;0.70;;;9.20;1.00;;;;;;5132939;28;20296;-82
2024/01/03 01:57:14;;;;;;;0.70;0.70;;;9.20;1.00;;;;;;5134461;28;20678;-84
2024/01/03 01:59:42;;;;;;;0.80;0.80;;;9.20;1.00;;;;;;5134283;27;20168;-83
2024/01/03 02:02:08;;;;;;;0.70;0.70;;;9.20;1.00;;;;;;5112972;28;20177;-80
2024/01/03 02:04:35;;;;;;;0.73;0.73;;;9.20;1.00;;;;;;5112770;28;20268;-83
2024/01/03 02:07:00;;;;;;;0.70;0.70;;;9.20;1.00;;;;;;5116404;27;20712;-83
2024/01/03 02:09:26;;;;;;;0.60;0.60;;;9.20;1.00;;;;;;5117590;28;20248;-84
2024/01/03 02:11:52;;;;;;;0.50;0.50;;;9.20;1.00;;;;;;5118180;28;20169;-82
2024/01/03 02:14:17;;;;;;;0.67;0.67;;;9.30;1.00;;;;;;5117415;28;20223;-81
2024/01/03 02:16:43;;;;;;;0.70;0.70;;;9.30;1.00;;;;;;5130764;27;20188;-83
2024/01/03 02:19:08;;;;;;;0.70;0.70;;;9.20;1.00;;;;;;5136887;27;20164;-83
2024/01/03 02:21:34;;;;;;;0.70;0.70;;;9.10;1.00;;;;;;5138315;27;20168;-82
2024/01/03 02:23:59;;;;;;;0.60;0.60;;;9.10;1.00;;;;;;5138309;27;20168;-84
2024/01/03 02:26:25;;;;;;;0.70;0.70;;;9.00;1.00;;;;;;5138501;27;20188;-84
2024/01/03 02:28:50;;;;;;;0.70;0.70;;;9.00;1.00;;;;;;5138380;27;20161;-84
2024/01/03 02:31:16;;;;;;;0.90;0.90;;;8.90;1.00;;;;;;5138104;27;20255;-82
2024/01/03 02:33:41;;;;;;;0.70;0.70;;;8.90;1.00;;;;;;5138098;27;20229;-84
2024/01/03 02:36:07;;;;;;;0.73;0.73;;;8.90;1.00;;;;;;5137045;27;20276;-83
2024/01/03 02:38:33;;;;;;;0.70;0.70;;;8.90;1.00;;;;;;5138043;27;20188;-85
2024/01/03 02:40:59;;;;;;;0.60;0.60;;;8.90;1.00;;;;;;5139533;27;20184;-85
2024/01/03 02:43:24;;;;;;;0.70;0.70;;;8.90;1.00;;;;;;5138285;27;20180;-85
2024/01/03 02:45:50;;;;;;;0.70;0.70;;;8.90;1.00;;;;;;5138150;27;20601;-82
2024/01/03 02:48:15;;;;;;;0.70;0.70;;;8.90;9.70;;;;;;5138001;27;20168;-85
2024/01/03 02:50:44;;;;;;;0.67;0.67;;;8.90;11.70;;;;;;5137705;27;20168;-84
2024/01/03 02:53:10;;;;;;;0.80;0.80;;;8.90;19.20;;;;;;5138674;27;20232;-85
2024/01/03 02:55:36;;;;;;;0.60;0.60;;;8.90;50.70;;;;;;5157156;27;20216;-85
2024/01/03 02:58:01;;;;;;;0.90;0.90;;;8.90;82.70;;;;;;5141289;27;20176;-84
2024/01/03 03:00:27;;;;;;;0.67;0.67;;;8.90;90.70;;;;;;5140660;27;20176;-84
2024/01/03 03:02:52;;;;;;;0.70;0.70;;;8.90;93.20;;;;;;5146410;27;20197;-82
2024/01/03 03:05:18;;;;;;;0.67;0.67;;;8.90;99.90;;;;;;5147663;27;20200;-80
2024/01/03 03:07:43;;;;;;;0.70;0.70;;;9.00;99.90;;;;;;5147477;27;20216;-82
2024/01/03 03:10:14;;;;;;;0.60;0.60;;;9.00;99.90;;;;;;5145887;27;20180;-84
2024/01/03 03:12:39;;;;;;;0.77;0.77;;;9.00;99.90;;;;;;5137621;27;20263;-86
2024/01/03 03:15:05;;;;;;;0.60;0.60;;;9.00;99.90;;;;;;5139199;27;20656;-84
2024/01/03 03:17:31;;;;;;;0.63;0.63;;;9.00;99.90;;;;;;5137274;27;20677;-85
2024/01/03 03:19:56;;;;;;;0.60;0.60;;;9.00;99.90;;;;;;5139526;27;20184;-84
2024/01/03 03:22:22;;;;;;;0.70;0.70;;;8.90;99.90;;;;;;5139146;27;20318;-82
2024/01/03 03:24:48;;;;;;;0.67;0.67;;;8.90;99.90;;;;;;5146421;27;20296;-81
2024/01/03 03:27:14;;;;;;;0.70;0.70;;;8.90;99.90;;;;;;5142043;27;20211;-85
2024/01/03 03:29:39;;;;;;;0.60;0.60;;;8.90;99.90;;;;;;5140210;27;20275;-85
2024/01/03 03:32:05;;;;;;;0.60;0.60;;;8.80;99.90;;;;;;5139069;27;20219;-85
2024/01/03 03:34:31;;;;;;;0.67;0.67;;;8.80;99.90;;;;;;5139509;27;20249;-83
2024/01/03 03:36:56;;;;;;;0.70;0.70;;;8.80;99.90;;;;;;5158798;27;20215;-80
2024/01/03 03:39:22;;;;;;;0.73;0.73;;;8.80;99.90;;;;;;5159361;27;20190;-80
2024/01/03 03:41:47;;;;;;;0.70;0.70;;;8.80;99.90;;;;;;5153735;27;20548;-85
2024/01/03 03:44:13;;;;;;;0.73;0.73;;;8.80;99.90;;;;;;5138628;27;20547;-84
2024/01/03 03:46:39;;;;;;;0.80;0.80;;;8.80;99.90;;;;;;5138273;27;20283;-83
2024/01/03 03:49:04;;;;;;;0.53;0.53;;;8.80;99.90;;;;;;5138732;27;20164;-86
2024/01/03 03:51:30;;;;;;;0.80;0.80;;;8.80;99.90;;;;;;5138925;27;20173;-85
2024/01/03 03:53:56;;;;;;;0.53;0.53;;;8.70;99.90;;;;;;5137816;27;20191;-85
2024/01/03 03:56:23;;;;;;;0.83;0.83;;;8.70;99.90;;;;;;5137535;27;20184;-84
2024/01/03 03:58:48;;;;;;;0.80;0.80;;;8.70;99.90;;;;;;5138321;27;20173;-85
2024/01/03 04:01:14;;;;;;;0.70;0.70;;;8.60;99.90;;;;;;5137542;27;20168;-84
2024/01/03 04:03:40;;;;;;;0.70;0.70;;;8.60;99.90;;;;;;5137693;27;20177;-85
2024/01/03 04:06:05;;;;;;;0.60;0.60;;;8.60;99.90;;;;;;5137044;27;20192;-85
2024/01/03 04:08:31;;;;;;;0.60;0.60;;;8.60;95.10;;;;;;5137718;27;20188;-84
2024/01/03 04:10:57;;;;;;;0.70;0.70;;;8.60;55.50;;;;;;5137779;27;20245;-86
2024/01/03 04:13:22;;;;;;;0.60;0.60;;;8.70;45.00;;;;;;5137182;27;20173;-83
2024/01/03 04:15:48;;;;;;;0.60;0.60;;;8.70;25.40;;;;;;5136648;27;20208;-83
2024/01/03 04:18:13;;;;;;;0.70;0.70;;;8.70;12.30;;;;;;5136797;27;20176;-84
2024/01/03 04:20:39;;;;;;;0.70;0.70;;;8.70;9.80;;;;;;5137131;27;20184;-83
2024/01/03 04:23:05;;;;;;;0.77;0.77;;;8.60;11.10;;;;;;5136377;27;20183;-84
2024/01/03 04:25:30;;;;;;;0.77;0.77;;;8.60;5.60;;;;;;5135649;27;20264;-83
2024/01/03 04:27:56;;;;;;;0.73;0.73;;;8.60;1.00;;;;;;5136027;27;20184;-86
2024/01/03 04:30:21;;;;;;;0.70;0.70;;;8.60;1.00;;;;;;5136197;27;20222;-84
2024/01/03 04:32:47;;;;;;;0.80;0.80;;;8.60;1.00;;;;;;5136794;27;20206;-83
2024/01/03 04:35:12;;;;;;;0.73;0.73;;;8.60;1.00;;;;;;5136152;27;20223;-86
2024/01/03 04:37:38;;;;;;;0.70;0.70;;;8.60;1.00;;;;;;5135916;27;20283;-86
2024/01/03 04:40:04;;;;;;;0.80;0.80;;;8.60;1.00;;;;;;5135156;27;20176;-86
2024/01/03 04:42:30;;;;;;;0.70;0.70;;;8.60;1.00;;;;;;5135869;27;20313;-85
2024/01/03 04:44:55;;;;;;;0.70;0.70;;;8.60;1.00;;;;;;5136689;27;20244;-85
2024/01/03 04:47:21;;;;;;;0.77;0.77;;;8.60;1.00;;;;;;5135922;27;20628;-86
2024/01/03 04:49:47;;;;;;;0.80;0.80;;;8.60;1.00;;;;;;5136443;27;20200;-84
2024/01/03 04:52:13;;;;;;;0.67;0.67;;;8.60;1.00;;;;;;5136203;27;20221;-86
2024/01/03 04:54:38;;;;;;;0.70;0.70;;;8.60;1.00;;;;;;5131500;27;20291;-83
2024/01/03 04:57:04;;;;;;;0.83;0.83;;;8.60;1.00;;;;;;5114780;28;20274;-84
2024/01/03 04:59:29;;;;;;;0.73;0.73;;;8.50;1.00;;;;;;5115728;28;20177;-85
2024/01/03 05:01:55;;;;;;;0.57;0.57;;;8.50;1.00;;;;;;5100430;28;20213;-86
2024/01/03 05:04:21;;;;;;;0.70;0.70;;;8.50;1.00;;;;;;5094457;28;20174;-84
2024/01/03 05:06:46;;;;;;;0.80;0.80;;;8.50;1.00;;;;;;5094122;28;20211;-85
2024/01/03 05:09:12;;;;;;;0.73;0.73;;;8.50;1.00;;;;;;5094741;28;20182;-86
2024/01/03 05:11:37;;;;;;;0.70;0.70;;;8.50;1.00;;;;;;5094701;28;20169;-83
2024/01/03 05:14:03;;;;;;;0.80;0.80;;;8.50;1.00;;;;;;5094596;28;20507;-84
2024/01/03 05:16:29;;;;;;;0.70;0.70;;;8.40;1.00;;;;;;5094734;28;20194;-86
2024/01/03 05:18:54;;;;;;;0.70;0.70;;;8.40;1.00;;;;;;5096364;28;20173;-86
2024/01/03 05:21:20;;;;;;;0.70;0.70;;;8.40;1.00;;;;;;5104667;28;20196;-86
2024/01/03 05:23:45;;;;;;;0.70;0.70;;;8.40;1.00;;;;;;5109420;28;20188;-87
2024/01/03 05:26:11;;;;;;;0.70;0.70;;;8.40;1.00;;;;;;5122906;28;20197;-80
2024/01/03 05:28:36;;;;;;;0.70;0.70;;;8.40;1.00;;;;;;5126207;28;20173;-84
2024/01/03 05:31:02;;;;;;;0.70;0.70;;;8.40;1.00;;;;;;5127570;28;20259;-82
2024/01/03 05:33:27;;;;;;;0.80;0.80;;;8.50;1.00;;;;;;5115322;28;20206;-84
2024/01/03 05:35:53;;;;;;;0.70;0.70;;;8.50;1.00;;;;;;5114058;28;20244;-85
2024/01/03 05:38:19;;;;;;;0.90;0.90;;;8.50;1.00;;;;;;5114140;28;20222;-85
2024/01/03 05:40:45;;;;;;;0.80;0.80;;;8.40;1.00;;;;;;5115258;28;20169;-83
2024/01/03 05:43:14;;;;;;;0.73;0.73;;;8.40;1.00;;;;;;5116442;28;20180;-84
2024/01/03 05:45:40;;;;;;;0.70;0.70;;;8.40;1.00;;;;;;5114831;28;20223;-83
2024/01/03 05:48:06;;;;;;;0.80;0.80;;;8.40;1.00;;;;;;5114431;28;20169;-85
2024/01/03 05:50:31;;;;;;;0.63;0.63;;;8.40;1.00;;;;;;5114347;28;20330;-85
2024/01/03 05:52:57;;;;;;;0.60;0.60;;;8.40;1.00;;;;;;5115694;28;20188;-85
2024/01/03 05:55:23;;;;;;;0.80;0.80;;;8.50;1.00;;;;;;5115374;28;20205;-82
2024/01/03 05:57:48;;;;;;;0.80;0.80;;;8.40;1.00;;;;;;5115957;28;20218;-82
2024/01/03 06:00:15;;;;;;;0.70;0.70;;;8.40;1.00;;;;;;5115862;28;20161;-84
2024/01/03 06:02:42;;;;;;;0.80;0.80;;;8.40;1.00;;;;;;5116359;28;20289;-86
2024/01/03 06:05:08;;;;;;;0.70;0.70;;;8.40;1.00;;;;;;5115691;28;20177;-84
2024/01/03 06:07:33;;;;;;;0.80;0.80;;;8.40;1.00;;;;;;5115178;28;20213;-83
2024/01/03 06:09:59;;;;;;;0.80;0.80;;;8.40;1.00;;;;;;5114292;28;20176;-82
2024/01/03 06:12:24;;;;;;;0.77;0.77;;;8.50;1.00;;;;;;5127011;28;20198;-79
2024/01/03 06:14:50;;;;;;;0.70;0.70;;;8.50;1.00;;;;;;5129655;28;20213;-80
2024/01/03 06:17:15;;;;;;;0.83;0.83;;;8.60;1.00;;;;;;5126535;28;20201;-84
2024/01/03 06:19:41;;;;;;;0.80;0.80;;;8.50;1.00;;;;;;5129055;28;20237;-80
2024/01/03 06:22:08;;;;;;;0.70;0.70;;;8.50;1.00;;;;;;5126115;28;20202;-82
2024/01/03 06:24:34;;;;;;;0.70;0.70;;;8.60;1.00;;;;;;5113835;28;20180;-84
2024/01/03 06:26:59;;;;;;;0.80;0.80;;;8.60;1.00;;;;;;5113220;28;20189;-82
2024/01/03 06:29:25;;;;;;;0.80;0.80;;;8.60;1.00;;;;;;5113950;28;20180;-81
2024/01/03 06:31:50;;;;;;;0.70;0.70;;;8.80;1.00;;;;;;5113696;28;20631;-81
2024/01/03 06:34:16;;;;;;;0.70;0.70;;;8.60;1.00;;;;;;5113310;28;20269;-83
2024/01/03 06:36:41;;;;;;;0.80;0.80;;;8.50;1.00;;;;;;5113330;28;20796;-82
2024/01/03 06:39:07;;;;;;;0.80;0.80;;;8.50;1.00;;;;;;5112010;28;20280;-81
2024/01/03 06:41:33;;;;;;;0.70;0.70;;;8.50;1.00;;;;;;5114327;28;20177;-82
2024/01/03 06:43:58;;;;;;;0.70;0.70;;;8.50;1.00;;;;;;5114045;28;20195;-84
2024/01/03 06:46:27;;;;;;;0.70;0.70;;;8.50;1.00;;;;;;5113297;28;20193;-85
2024/01/03 06:48:54;;;;;;;0.80;0.80;;;8.60;1.00;;;;;;5114259;28;20171;-81
2024/01/03 06:51:20;;;;;;;0.70;0.70;;;8.70;1.00;;;;;;5116093;28;20260;-82
2024/01/03 06:53:46;;;;;;;0.80;0.80;;;8.60;1.00;;;;;;5118318;28;20189;-82
2024/01/03 06:56:12;;;;;;;0.80;0.80;;;8.60;1.00;;;;;;5116485;28;20752;-79
2024/01/03 06:58:38;;;;;;;0.80;0.80;;;8.60;1.00;;;;;;5118031;28;20169;-82
2024/01/03 07:01:07;;;;;;;0.70;0.70;;;8.60;1.00;;;;;;5118587;28;20249;-80
2024/01/03 07:03:34;;;;;;;0.60;0.60;;;8.40;1.00;;;;;;5099439;28;20185;-78
2024/01/03 07:05:59;;;;;;;0.60;0.60;;;8.60;1.00;;;;;;5111013;28;20197;-83
2024/01/03 07:08:25;;;;;;;0.60;0.60;;;8.60;1.00;;;;;;5117335;28;20189;-82
2024/01/03 07:10:51;;;;;;;0.67;0.67;;;8.60;1.00;;;;;;5120096;28;20245;-85
2024/01/03 07:13:17;;;;;;;0.80;0.80;;;8.60;1.00;;;;;;5119991;28;20568;-85
2024/01/03 07:15:44;;;;;;;0.70;0.70;;;8.60;1.00;;;;;;5119876;28;20686;-84
2024/01/03 07:18:09;;;;;;;0.80;0.80;;;8.70;1.00;;;;;;5116617;28;20180;-83
2024/01/03 07:20:35;;;;;;;0.80;0.80;;;8.70;1.00;;;;;;5110147;28;20548;-83
2024/01/03 07:23:05;;;;;;;0.80;0.80;;;8.70;1.00;;;;;;5131063;27;20194;-82
2024/01/03 07:25:37;;;;;;;0.70;0.70;;;8.70;1.00;;;;;;5134625;28;20226;-81
2024/01/03 07:28:04;;;;;;;0.90;0.90;;;8.70;1.00;;;;;;5122024;28;20185;-84
2024/01/03 07:30:29;;;;;;;0.80;0.80;;;8.80;1.00;;;;;;5122557;27;20177;-83
2024/01/03 07:32:57;;;;;;;0.70;0.70;;;8.80;1.00;;;;;;5118544;28;20184;-80
2024/01/03 07:35:23;;;;;;;0.70;0.70;;;9.00;1.00;;;;;;5107482;28;20215;-82
2024/01/03 07:37:49;;;;;;;0.80;0.80;;;8.90;1.00;;;;;;5114319;28;20204;-80
2024/01/03 07:40:15;;;;;;;0.80;0.80;;;9.00;1.00;;;;;;5115656;28;20171;-83
2024/01/03 07:42:41;;;;;;;0.80;0.80;;;9.00;1.00;;;;;;5116680;28;20332;-82
2024/01/03 07:45:07;;;;;;;0.80;0.80;;;9.10;1.00;;;;;;5117284;28;20249;-81
2024/01/03 07:47:33;;;;;;;0.70;0.70;;;9.10;1.00;;;;;;5119162;28;20193;-78
2024/01/03 07:49:58;;;;;;;0.80;0.80;;;9.10;99.90;;;;;;5129821;28;20166;-82
2024/01/03 07:52:24;;;;;;;0.70;0.70;;;9.10;1.00;;;;;;5103121;28;20219;-83
2024/01/03 07:54:49;;;;;;;0.80;0.80;;;9.10;99.90;;;;;;5097110;28;20205;-84
2024/01/03 07:57:15;;;;;;;0.70;0.70;;;9.10;1.00;;;;;;5101067;27;20198;-84
2024/01/03 07:59:44;;;;;;;0.70;0.70;;;9.00;1.00;;;;;;5119926;27;20173;-84
2024/01/03 08:02:10;;;;;;;0.77;0.77;;;9.00;1.00;;;;;;5120819;27;20169;-85
2024/01/03 08:04:36;;;;;;;0.70;0.70;;;9.00;1.00;;;;;;5111981;27;20656;-82
2024/01/03 08:07:02;;;;;;;0.70;0.70;;;9.00;1.00;;;;;;5118978;27;20257;-86
2024/01/03 08:09:27;;;;;;;0.80;0.80;;;9.30;1.00;;;;;;5107575;27;20751;-87
2024/01/03 08:11:53;;;;;;;0.80;0.80;;;9.20;1.00;;;;;;5102477;28;20635;-85
2024/01/03 08:14:19;;;;;;;0.60;0.60;;;9.20;1.00;;;;;;5103609;28;20519;-87
2024/01/03 08:16:46;;;;;;;0.60;0.60;;;9.40;99.90;;;;;;5104724;28;20731;-85
2024/01/03 08:19:11;;;;;;;0.60;0.60;;;9.50;99.90;;;;;;5106529;28;20169;-82
2024/01/03 08:21:37;;;;;;;0.70;0.70;;;9.60;99.00;;;;;;5101547;28;20181;-86
2024/01/03 08:24:02;;;;;;;0.70;0.70;;;9.70;1.00;;;;;;5103065;28;20178;-84
2024/01/03 08:26:28;;;;;;;0.70;0.70;;;9.70;1.00;;;;;;5102148;28;20200;-84
2024/01/03 08:28:54;;;;;;;0.67;0.67;;;9.70;1.00;;;;;;5103736;28;20260;-87
2024/01/03 08:31:19;;;;;;;0.70;0.70;;;9.80;1.00;;;;;;5101914;28;20586;-85
2024/01/03 08:33:46;;;;;;;0.70;0.70;;;9.80;99.90;;;;;;5103632;28;20268;-84
2024/01/03 08:36:12;;;;;;;0.70;0.70;;;9.90;1.00;;;;;;5105617;28;20201;-83
2024/01/03 08:38:39;;;;;;;0.80;0.80;;;10.00;1.00;;;;;;5105958;28;20177;-83
2024/01/03 08:41:15;;;;;;;0.60;0.60;;;10.40;1.00;;;;;;5103688;28;20173;-85
2024/01/03 08:43:41;;;;;;;0.60;0.60;;;10.20;99.90;;;;;;5114620;28;20250;-84
2024/01/03 08:46:08;;;;;;;0.70;0.70;;;10.30;1.00;;;;;;5115903;28;20596;-84
2024/01/03 08:48:33;;;;;;;0.70;0.70;;;10.30;99.90;;;;;;5115477;28;20177;-84
2024/01/03 08:50:59;;;;;;;0.60;0.60;;;10.30;1.00;;;;;;5109270;28;20654;-83
2024/01/03 08:53:24;;;;;;;0.70;0.70;;;10.20;1.00;;;;;;5109518;28;20182;-83
2024/01/03 08:55:50;;;;;;;0.70;0.70;;;10.20;99.90;;;;;;5107193;28;20287;-84
2024/01/03 08:58:19;;;;;;;0.60;0.60;;;10.20;1.00;;;;;;5106600;28;20208;-86
2024/01/03 09:00:45;;;;;;;0.60;0.60;;;10.20;1.00;;;;;;5105126;28;20215;-82
2024/01/03 09:03:11;;;;;;;0.63;0.63;;;10.20;1.00;;;;;;5106917;28;20232;-83
2024/01/03 09:05:37;;;;;;;0.63;0.63;;;10.10;1.00;;;;;;5111776;28;20181;-81
2024/01/03 09:08:03;;;;;;;0.80;0.80;;;10.10;1.00;;;;;;5115134;28;20177;-82
2024/01/03 09:10:28;;;;;;;0.70;0.70;;;10.10;99.90;;;;;;5129399;28;20174;-81
2024/01/03 09:12:54;;;;;;;0.60;0.60;;;10.00;1.00;;;;;;5116871;28;20182;-82
2024/01/03 09:15:19;;;;;;;0.60;0.60;;;10.00;1.00;;;;;;5123164;28;20265;-82
2024/01/03 09:17:45;;;;;;;0.60;0.60;;;10.00;1.00;;;;;;5101708;28;20247;-86
2024/01/03 09:20:11;;;;;;;0.60;0.60;;;10.20;1.00;;;;;;5097023;28;20170;-83
2024/01/03 09:22:37;;;;;;;0.60;0.60;;;10.30;1.00;;;;;;5098679;28;20183;-83
2024/01/03 09:25:03;;;;;;;0.60;0.60;;;10.80;31.90;;;;;;5102036;28;20174;-84
2024/01/03 09:27:29;;;;;;;0.60;0.60;;;11.10;1.00;;;;;;5102485;28;20193;-84
2024/01/03 09:29:55;;;;;;;0.60;0.60;;;11.10;1.00;;;;;;5115341;28;20543;-83
2024/01/03 09:32:21;;;;;;;0.60;0.60;;;11.00;15.50;;;;;;5115477;28;20546;-84
2024/01/03 09:34:46;;;;;;;0.50;0.50;;;10.80;99.90;;;;;;5111284;28;20216;-85
2024/01/03 09:37:13;;;;;;;0.60;0.60;;;10.80;1.00;;;;;;5106003;28;20189;-85
2024/01/03 09:39:40;;;;;;;0.70;0.70;;;10.70;1.00;;;;;;5108077;28;20262;-84
2024/01/03 09:42:06;;;;;;;0.57;0.57;;;10.70;1.00;;;;;;5107267;28;20165;-84
2024/01/03 09:44:33;;;;;;;0.40;0.40;;;10.80;1.00;;;;;;5103108;28;20177;-84
2024/01/03 09:46:59;;;;;;;0.60;0.60;;;10.80;1.00;;;;;;5095551;28;20221;-85
2024/01/03 09:49:24;;;;;;;0.50;0.50;;;10.80;1.00;;;;;;5099985;28;20186;-84
2024/01/03 09:51:52;;;;;;;0.50;0.50;;;11.00;1.00;;;;;;5105880;28;20187;-84
2024/01/03 09:54:19;;;;;;;0.67;0.67;;;10.80;1.00;;;;;;5105005;28;20593;-85
2024/01/03 09:56:47;;;;;;;0.60;0.60;;;10.70;99.90;;;;;;5104544;28;20194;-87
2024/01/03 09:59:13;;;;;;;0.50;0.50;;;10.60;99.90;;;;;;5104263;28;20545;-87
2024/01/03 10:01:39;;;;;;;0.50;0.50;;;10.60;1.00;;;;;;5105892;28;20174;-85
2024/01/03 10:04:06;;;;;;;0.70;0.70;;;10.50;99.90;;;;;;5105700;28;20172;-85
2024/01/03 10:06:32;;;;;;;0.60;0.60;;;10.50;99.90;;;;;;5102361;28;20189;-86
2024/01/03 10:09:00;;;;;;;0.57;0.57;;;10.40;58.10;;;;;;5107246;28;20173;-85
2024/01/03 10:11:26;;;;;;;0.60;0.60;;;10.20;1.00;;;;;;5109200;28;20264;-84
2024/01/03 10:13:56;;;;;;;0.60;0.60;;;10.20;1.00;;;;;;5108461;28;20183;-84
2024/01/03 10:16:27;;;;;;;0.53;0.53;;;10.30;1.00;;;;;;5104423;28;20265;-84
2024/01/03 10:19:17;;;;;;;0.70;0.70;;;10.30;99.90;;;;;;5117671;28;20166;-82
2024/01/03 10:21:53;;;;;;;0.70;0.70;;;10.30;99.90;;;;;;5116478;28;20193;-83
2024/01/03 10:24:20;;;;;;;0.70;0.70;;;10.20;1.00;;;;;;5114757;28;20204;-83
2024/01/03 10:26:46;;;;;;;0.57;0.57;;;10.50;1.00;;;;;;5115991;28;20678;-85
2024/01/03 10:29:14;;;;;;;0.60;0.60;;;10.20;1.00;;;;;;5119271;28;20176;-86
2024/01/03 10:31:41;;;;;;;0.70;0.70;;;10.20;1.00;;;;;;5139419;28;20169;-86
2024/01/03 10:34:12;;;;;;;0.50;0.50;;;10.30;1.00;;;;;;5132359;28;20173;-79
2024/01/03 10:36:39;;;;;;;0.67;0.67;;;10.40;99.90;;;;;;5119927;28;20225;-86
2024/01/03 10:39:05;;;;;;;0.60;0.60;;;10.40;1.00;;;;;;5121614;28;20267;-85
2024/01/03 10:41:31;;;;;;;0.70;0.70;;;10.60;1.00;;;;;;5133368;28;20179;-82
2024/01/03 10:44:01;;;;;;;0.60;0.60;;;10.30;1.00;;;;;;5127358;28;20165;-83
2024/01/03 10:46:30;;;;;;;0.60;0.60;;;10.40;1.00;;;;;;5117188;28;20227;-83
2024/01/03 10:48:56;;;;;;;0.70;0.70;;;10.60;1.00;;;;;;5123608;28;20185;-85
2024/01/03 10:51:23;;;;;;;0.50;0.50;;;11.00;99.90;;;;;;5113278;28;20166;-85
2024/01/03 10:53:52;;;;;;;0.50;0.50;;;11.40;99.90;;;;;;5105133;28;20173;-84
2024/01/03 10:56:20;;;;;;;0.60;0.60;;;12.30;99.90;;;;;;5097390;28;20729;-86
2024/01/03 10:58:45;;;;;;;0.50;0.50;;;12.80;1.00;;;;;;5096284;28;20181;-85
2024/01/03 11:01:44;;;;;;;0.43;0.43;;;13.00;1.00;;;;;;5096862;28;20177;-84
2024/01/03 11:04:32;;;;;;;0.50;0.50;;;13.20;99.90;;;;;;5085660;28;20193;-86
2024/01/03 11:07:13;;;;;;;0.50;0.50;;;13.60;99.90;;;;;;5095660;28;20210;-86
2024/01/03 11:09:39;;;;;;;0.40;0.40;;;14.00;99.90;;;;;;5116570;27;20645;-84
2024/01/03 11:12:09;;;;;;;0.40;0.40;;;13.50;99.90;;;;;;5139317;27;20255;-84
2024/01/03 11:14:35;;;;;;;0.60;0.60;;;12.90;99.90;;;;;;5138559;27;20233;-82
2024/01/03 11:17:01;;;;;;;0.50;0.50;;;12.40;99.90;;;;;;5105316;27;20193;-85
2024/01/03 11:19:31;;;;;;;0.60;0.60;;;12.20;99.90;;;;;;5103646;28;20588;-86
2024/01/03 11:22:02;;;;;;;0.50;0.50;;;12.10;99.90;;;;;;5104596;28;20169;-85
2024/01/03 11:24:28;;;;;;;0.43;0.43;;;12.00;99.90;;;;;;5106989;28;20196;-86
2024/01/03 11:29:41;;;;;;;0.50;0.50;;;11.80;1.00;;;;;;5112221;28;20162;-87
2024/01/03 11:32:14;;;;;;;0.60;0.60;;;11.80;1.00;;;;;;5099018;28;20253;-84
2024/01/03 11:34:44;;;;;;;0.50;0.50;;;12.30;1.00;;;;;;5108123;28;20244;-86
2024/01/03 11:37:18;;;;;;;0.50;0.50;;;12.80;99.90;;;;;;5115721;28;20234;-86
2024/01/03 11:39:46;;;;;;;0.50;0.50;;;12.80;99.90;;;;;;5103920;28;20164;-85
2024/01/03 11:42:29;;;;;;;0.50;0.50;;;13.20;99.90;;;;;;5097512;28;20173;-86
2024/01/03 11:45:05;;;;;;;0.60;0.60;;;13.30;99.90;;;;;;5102668;28;20233;-86
2024/01/03 11:47:39;;;;;;;0.53;0.53;;;13.20;99.90;;;;;;5105418;28;20216;-85
2024/01/03 11:50:08;;;;;;;0.60;0.60;;;13.00;99.90;;;;;;5116589;28;20185;-84
2024/01/03 11:52:36;;;;;;;0.60;0.60;;;12.80;99.90;;;;;;5098935;28;20174;-84
2024/01/03 11:55:07;;;;;;;0.53;0.53;;;13.00;99.90;;;;;;5110839;28;20235;-86
2024/01/03 11:57:36;;;;;;;0.47;0.47;;;13.10;99.90;;;;;;5096692;28;20655;-90
2024/01/03 12:00:02;;;;;;;0.60;0.60;;;12.90;99.90;;;;;;5097413;28;20174;-84
2024/01/03 12:02:28;;;;;;;0.50;0.50;;;12.60;99.90;;;;;;5096770;28;20181;-88
2024/01/03 12:05:04;;;;;;;0.50;0.50;;;12.60;99.90;;;;;;5101000;28;20202;-85
2024/01/03 12:07:32;;;;;;;0.60;0.60;;;12.40;99.90;;;;;;5114302;28;20934;-86
2024/01/03 12:09:59;;;;;;;0.50;0.50;;;12.20;99.90;;;;;;5113884;28;20196;-92
2024/01/03 12:12:26;;;;;;;0.60;0.60;;;12.00;1.00;;;;;;5100591;28;20189;-85
2024/01/03 12:14:53;;;;;;;0.60;0.60;;;11.90;1.00;;;;;;5116695;28;20246;-84
2024/01/03 12:17:29;;;;;;;0.60;0.60;;;12.10;1.00;;;;;;5116314;28;20199;-84
2024/01/03 12:20:15;;;;;;;0.60;0.60;;;12.10;1.00;;;;;;5116674;28;20854;-84
2024/01/03 12:22:41;;;;;;;0.60;0.60;;;12.00;1.00;;;;;;5118003;28;20169;-86
2024/01/03 12:25:15;;;;;;;0.50;0.50;;;11.70;1.00;;;;;;5096949;28;20174;-85
2024/01/03 12:27:41;;;;;;;0.50;0.50;;;11.70;1.00;;;;;;5098873;28;20678;-86
2024/01/03 12:30:19;;;;;;;0.67;0.67;;;11.70;1.00;;;;;;5103786;28;20257;-84
2024/01/03 12:32:47;;;;;;;0.67;0.67;;;11.50;1.00;;;;;;5105943;28;20177;-86
2024/01/03 12:35:13;;;;;;;0.60;0.60;;;11.40;1.00;;;;;;5103782;28;20284;-85
2024/01/03 12:37:46;;;;;;;0.60;0.60;;;11.30;1.00;;;;;;5104951;28;20193;-86
2024/01/03 12:40:15;;;;;;;0.60;0.60;;;11.50;1.00;;;;;;5113682;28;20170;-87
2024/01/03 12:42:43;;;;;;;0.60;0.60;;;11.70;1.00;;;;;;5103710;28;20183;-87
2024/01/03 12:45:09;;;;;;;0.60;0.60;;;11.80;1.00;;;;;;5102973;28;20249;-85
2024/01/03 12:47:35;;;;;;;0.60;0.60;;;11.80;1.00;;;;;;5094420;28;20217;-86
2024/01/03 12:50:07;;;;;;;0.57;0.57;;;12.30;1.00;;;;;;5093046;28;20166;-84
2024/01/03 12:52:34;;;;;;;0.50;0.50;;;13.00;99.90;;;;;;5092734;28;20173;-88
2024/01/03 12:54:59;;;;;;;0.60;0.60;;;13.30;99.90;;;;;;5093304;28;20206;-85
2024/01/03 12:57:25;;;;;;;0.60;0.60;;;13.60;99.90;;;;;;5095420;28;20622;-86
2024/01/03 12:59:52;;;;;;;0.50;0.50;;;13.90;61.20;;;;;;5094554;28;20180;-85
2024/01/03 13:02:17;;;;;;;0.50;0.50;;;14.00;29.20;;;;;;5107860;28;20173;-87